Time;durP1;ratioP1;P1;durP2;ratioP2;P2;SDS_P1;SDS_P2;PMS_P1;PMS_P2;Temp;Humidity;BMP_temperature;BMP_pressure;BME280_temperature;BME280_humidity;BME280_pressure;Samples;Min_cycle;Max_cycle;Signal;HPM_P1;HPM_P2
2022/01/15 00:00:29;;;;;;;0.60;0.60;;;;;;;-0.39;85.48;98233.03;29373;251;63005;-63
2022/01/15 00:01:01;;;;;;;0.68;0.68;;;;;;;-0.40;85.23;98226.88;29373;214;63009;-60
2022/01/15 00:01:34;;;;;;;0.60;0.60;;;;;;;-0.40;85.36;98226.06;29373;236;63005;-63
2022/01/15 00:02:06;;;;;;;0.70;0.70;;;;;;;-0.40;85.13;98226.06;29373;226;63009;-62
2022/01/15 00:02:37;;;;;;;0.65;0.65;;;;;;;-0.40;85.46;98223.38;29373;213;63005;-59
2022/01/15 00:03:10;;;;;;;0.60;0.60;;;;;;;-0.40;85.11;98226.06;29371;214;64009;-60
2022/01/15 00:03:45;;;;;;;0.60;0.60;;;;;;;-0.40;85.17;98226.06;29373;260;63005;-58
2022/01/15 00:04:17;;;;;;;0.70;0.70;;;;;;;-0.41;85.05;98225.22;29372;211;63009;-61
2022/01/15 00:04:48;;;;;;;0.60;0.60;;;;;;;-0.41;85.11;98221.75;29373;210;63004;-59
2022/01/15 00:05:22;;;;;;;0.60;0.60;;;;;;;-0.43;84.74;98221.09;29373;258;63009;-60
2022/01/15 00:05:55;;;;;;;0.60;0.60;;;;;;;-0.47;84.95;98215.31;29372;210;63004;-62
2022/01/15 00:06:28;;;;;;;0.68;0.68;;;;;;;-0.50;85.06;98215.69;29371;252;64008;-61
2022/01/15 00:07:04;;;;;;;1.27;1.27;;;;;;;-0.51;85.15;98213.22;29373;215;63006;-63
2022/01/15 00:07:42;;;;;;;0.70;0.70;;;;;;;-0.51;85.22;98221.22;29373;249;63023;-62
2022/01/15 00:08:14;;;;;;;0.60;0.60;;;;;;;-0.52;85.28;98206.22;29373;248;63005;-59
2022/01/15 00:08:51;;;;;;;0.60;0.60;;;;;;;-0.53;85.10;98215.25;29373;199;63005;-60
2022/01/15 00:09:25;;;;;;;0.60;0.60;;;;;;;-0.54;85.29;98209.09;29373;254;63005;-62
2022/01/15 00:09:59;;;;;;;0.60;0.60;;;;;;;-0.55;85.12;98212.78;29373;223;63009;-59
2022/01/15 00:10:36;;;;;;;0.60;0.60;;;;;;;-0.56;85.45;98211.13;29373;254;63005;-60
2022/01/15 00:11:10;;;;;;;0.60;0.60;;;;;;;-0.55;85.22;98211.94;29373;202;63009;-60
2022/01/15 00:11:44;;;;;;;0.60;0.60;;;;;;;-0.56;85.18;98205.78;29371;207;64018;-59
2022/01/15 00:12:24;;;;;;;0.60;0.60;;;;;;;-0.55;85.38;98203.94;29373;197;63009;-64
2022/01/15 00:13:03;;;;;;;0.70;0.70;;;;;;;-0.56;85.55;98210.28;29373;243;63004;-60
2022/01/15 00:13:38;;;;;;;0.60;0.60;;;;;;;-0.56;85.30;98199.63;29373;210;63008;-58
2022/01/15 00:14:20;;;;;;;0.60;0.60;;;;;;;-0.58;85.67;98207.81;29373;230;63004;-62
2022/01/15 00:14:53;;;;;;;0.70;0.70;;;;;;;-0.58;85.62;98207.00;29373;218;63009;-63
2022/01/15 00:15:36;;;;;;;0.60;0.60;;;;;;;-0.58;85.47;98207.81;29373;212;63005;-58
2022/01/15 00:16:13;;;;;;;0.70;0.70;;;;;;;-0.55;85.67;98211.94;29373;207;63009;-59
2022/01/15 00:16:55;;;;;;;0.70;0.70;;;;;;;-0.54;85.91;98200.28;29371;262;64005;-65
2022/01/15 00:18:17;;;;;;;0.65;0.65;;;;;;;-0.50;85.68;98204.22;29373;204;63004;-59
2022/01/15 00:19:04;;;;;;;0.70;0.70;;;;;;;-0.49;85.34;98208.53;29373;228;63009;-58
2022/01/15 00:19:42;;;;;;;0.60;0.60;;;;;;;-0.47;85.35;98204.66;29373;226;63004;-59
2022/01/15 00:20:19;;;;;;;0.70;0.70;;;;;;;-0.45;85.36;98205.28;29373;212;63009;-59
2022/01/15 00:20:52;;;;;;;0.60;0.60;;;;;;;-0.42;85.06;98209.41;29373;214;63004;-60
2022/01/15 00:21:26;;;;;;;0.60;0.60;;;;;;;-0.40;85.04;98207.38;29373;228;63008;-59
2022/01/15 00:22:01;;;;;;;0.70;0.70;;;;;;;-0.38;84.64;98208.03;29371;236;64005;-59
2022/01/15 00:22:36;;;;;;;0.70;0.70;;;;;;;-0.36;84.52;98206.00;29373;197;63009;-60
2022/01/15 00:23:12;;;;;;;0.60;0.60;;;;;;;-0.34;84.57;98202.09;29373;200;63005;-59
2022/01/15 00:23:43;;;;;;;0.65;0.65;;;;;;;-0.32;84.37;98201.91;29373;206;63009;-58
2022/01/15 00:24:15;;;;;;;0.60;0.60;;;;;;;-0.30;84.05;98204.38;29373;205;63005;-58
2022/01/15 00:24:48;;;;;;;0.60;0.60;;;;;;;-0.30;84.00;98197.19;29373;202;63009;-59
2022/01/15 00:25:24;;;;;;;0.60;0.60;;;;;;;-0.29;84.19;98198.84;29373;254;63005;-58
2022/01/15 00:25:57;;;;;;;0.60;0.60;;;;;;;-0.28;83.74;98197.00;29373;206;63009;-64
2022/01/15 00:26:28;;;;;;;0.68;0.68;;;;;;;-0.28;83.99;98187.16;29373;218;63004;-63
2022/01/15 00:27:08;;;;;;;0.60;0.60;;;;;;;-0.27;83.97;98188.81;29371;226;64009;-59
2022/01/15 00:27:40;;;;;;;0.70;0.70;;;;;;;-0.27;84.04;98194.16;29373;197;63004;-59
2022/01/15 00:28:15;;;;;;;0.70;0.70;;;;;;;-0.29;83.65;98190.84;29373;264;63009;-58
2022/01/15 00:28:46;;;;;;;0.60;0.60;;;;;;;-0.28;83.79;98194.34;29373;226;63004;-64
2022/01/15 00:29:23;;;;;;;0.60;0.60;;;;;;;-0.29;83.80;98184.69;29373;204;63009;-59
2022/01/15 00:29:58;;;;;;;0.60;0.60;;;;;;;-0.28;83.72;98197.84;29373;213;63012;-59
2022/01/15 00:30:41;;;;;;;0.70;0.70;;;;;;;-0.26;83.88;98193.13;29373;240;63009;-64
2022/01/15 00:31:13;;;;;;;0.62;0.62;;;;;;;-0.24;83.88;98200.94;29372;197;63005;-58
2022/01/15 00:31:45;;;;;;;0.60;0.60;;;;;;;-0.24;83.50;98196.44;29373;214;63024;-59
2022/01/15 00:32:17;;;;;;;0.60;0.60;;;;;;;-0.22;83.42;98197.06;29371;214;64005;-59
2022/01/15 00:32:54;;;;;;;0.60;0.60;;;;;;;-0.21;83.55;98193.38;29373;215;63009;-64
2022/01/15 00:33:29;;;;;;;0.60;0.60;;;;;;;-0.20;83.62;98195.03;29373;279;63004;-59
2022/01/15 00:34:01;;;;;;;0.60;0.60;;;;;;;-0.19;83.51;98196.69;29373;287;63009;-65
2022/01/15 00:34:35;;;;;;;0.60;0.60;;;;;;;-0.19;83.37;98196.69;29373;209;63004;-58
2022/01/15 00:35:09;;;;;;;0.60;0.60;;;;;;;-0.16;83.05;98198.16;29373;199;63009;-59
2022/01/15 00:35:40;;;;;;;0.60;0.60;;;;;;;-0.15;83.27;98197.97;29373;223;63004;-63
2022/01/15 00:36:12;;;;;;;0.60;0.60;;;;;;;-0.15;82.97;98195.28;29373;215;63008;-59
2022/01/15 00:36:44;;;;;;;0.60;0.60;;;;;;;-0.16;82.92;98198.16;29373;244;63001;-57
2022/01/15 00:37:15;;;;;;;0.60;0.60;;;;;;;-0.16;82.79;98198.97;29373;209;63009;-59
2022/01/15 00:37:47;;;;;;;0.60;0.60;;;;;;;-0.17;82.92;98197.31;29371;284;64005;-59
2022/01/15 00:38:18;;;;;;;0.60;0.60;;;;;;;-0.19;82.99;98196.69;29373;206;63009;-59
2022/01/15 00:38:50;;;;;;;0.60;0.60;;;;;;;-0.19;83.01;98195.88;29373;208;63005;-59
2022/01/15 00:39:21;;;;;;;0.60;0.60;;;;;;;-0.21;83.12;98192.56;29373;197;63009;-60
2022/01/15 00:39:55;;;;;;;0.60;0.60;;;;;;;-0.21;83.29;98193.38;29373;204;63005;-58
2022/01/15 00:40:27;;;;;;;0.60;0.60;;;;;;;-0.23;83.17;98187.41;29373;284;63009;-59
2022/01/15 00:40:58;;;;;;;0.60;0.60;;;;;;;-0.23;83.52;98195.41;29373;209;63016;-63
2022/01/15 00:41:29;;;;;;;0.60;0.60;;;;;;;-0.24;83.33;98188.44;29373;255;63009;-59
2022/01/15 00:42:00;;;;;;;0.70;0.70;;;;;;;-0.26;83.65;98187.81;29373;214;63004;-63
2022/01/15 00:42:34;;;;;;;0.70;0.70;;;;;;;-0.28;83.83;98195.16;29373;249;63009;-58
2022/01/15 00:43:07;;;;;;;0.60;0.60;;;;;;;-0.30;83.48;98191.88;29371;238;64004;-59
2022/01/15 00:43:38;;;;;;;0.70;0.70;;;;;;;-0.31;83.93;98195.53;29373;210;63008;-60
2022/01/15 00:44:10;;;;;;;0.70;0.70;;;;;;;-0.31;83.96;98197.38;29373;246;63004;-62
2022/01/15 00:44:42;;;;;;;0.60;0.60;;;;;;;-0.34;83.76;98188.75;29373;245;63009;-58
2022/01/15 00:45:19;;;;;;;0.60;0.60;;;;;;;-0.35;84.02;98191.66;29373;285;63005;-59
2022/01/15 00:45:51;;;;;;;0.60;0.60;;;;;;;-0.37;83.89;98188.34;29373;197;63005;-62
2022/01/15 00:46:24;;;;;;;0.60;0.60;;;;;;;-0.39;84.38;98195.72;29373;260;63007;-59
2022/01/15 00:46:58;;;;;;;0.60;0.60;;;;;;;-0.41;84.23;98193.22;29373;214;63009;-59
2022/01/15 00:47:31;;;;;;;0.60;0.60;;;;;;;-0.41;84.50;98197.75;29372;199;63005;-59
2022/01/15 00:48:05;;;;;;;0.60;0.60;;;;;;;-0.43;84.26;98194.44;29373;232;63009;-61
2022/01/15 00:48:37;;;;;;;1.10;1.10;;;;;;;-0.47;84.46;98193.16;29371;222;64016;-59
2022/01/15 00:49:09;;;;;;;1.08;1.08;;;;;;;-0.53;84.27;98188.59;29373;235;63009;-59
2022/01/15 00:49:40;;;;;;;0.60;0.60;;;;;;;-0.57;84.63;98192.66;29373;197;63004;-60
2022/01/15 00:50:12;;;;;;;0.85;0.85;;;;;;;-0.58;84.82;98191.00;29373;220;63009;-60
2022/01/15 00:50:44;;;;;;;2.55;2.45;;;;;;;-0.58;84.72;98194.50;29373;282;63004;-60
2022/01/15 00:51:15;;;;;;;0.80;0.80;;;;;;;-0.58;84.63;98186.50;29373;266;63008;-59
2022/01/15 00:51:46;;;;;;;0.60;0.60;;;;;;;-0.56;84.80;98191.62;29373;233;63005;-59
2022/01/15 00:52:17;;;;;;;0.70;0.70;;;;;;;-0.57;84.99;98188.13;29373;199;63009;-59
2022/01/15 00:52:49;;;;;;;0.70;0.70;;;;;;;-0.56;85.06;98195.13;29373;222;63005;-58
2022/01/15 00:53:22;;;;;;;0.60;0.60;;;;;;;-0.56;84.76;98188.97;29373;227;63017;-58
2022/01/15 00:53:53;;;;;;;0.60;0.60;;;;;;;-0.56;84.76;98195.13;29371;230;64005;-63
2022/01/15 00:54:24;;;;;;;0.60;0.60;;;;;;;-0.55;84.86;98188.78;29373;199;63009;-59
2022/01/15 00:54:55;;;;;;;0.60;0.60;;;;;;;-0.54;84.85;98189.59;29373;264;63005;-59
2022/01/15 00:55:27;;;;;;;0.60;0.60;;;;;;;-0.52;84.76;98190.25;29373;202;63005;-59
2022/01/15 00:55:58;;;;;;;0.60;0.60;;;;;;;-0.53;84.92;98193.91;29373;202;63009;-58
2022/01/15 00:56:33;;;;;;;0.70;0.70;;;;;;;-0.54;84.88;98186.94;29371;212;64009;-59
2022/01/15 00:57:05;;;;;;;0.60;0.60;;;;;;;-0.57;84.80;98193.47;29373;213;63004;-59
2022/01/15 00:57:36;;;;;;;0.98;0.98;;;;;;;-0.58;84.53;98188.34;29373;251;63009;-59
2022/01/15 00:58:07;;;;;;;0.70;0.70;;;;;;;-0.59;84.67;98184.00;29373;233;63004;-59
2022/01/15 00:58:38;;;;;;;0.60;0.60;;;;;;;-0.58;84.58;98189.16;29373;219;63008;-62
2022/01/15 00:59:10;;;;;;;0.60;0.60;;;;;;;-0.59;85.05;98190.16;29373;262;63004;-60
2022/01/15 00:59:41;;;;;;;0.60;0.60;;;;;;;-0.59;84.65;98184.00;29373;202;63018;-62
2022/01/15 01:00:17;;;;;;;0.60;0.60;;;;;;;-0.59;84.98;98184.00;29373;292;63005;-59
2022/01/15 01:00:51;;;;;;;0.60;0.60;;;;;;;-0.58;84.93;98185.66;29371;240;64009;-59
2022/01/15 01:01:22;;;;;;;0.60;0.60;;;;;;;-0.55;84.71;98179.94;29373;214;63017;-60
2022/01/15 01:01:53;;;;;;;0.60;0.60;;;;;;;-0.55;84.15;98185.28;29373;253;63009;-59
2022/01/15 01:02:24;;;;;;;0.60;0.60;;;;;;;-0.54;84.05;98181.59;29373;253;63005;-63
2022/01/15 01:02:55;;;;;;;0.60;0.60;;;;;;;-0.54;84.32;98192.28;29373;220;63009;-60
2022/01/15 01:03:27;;;;;;;0.60;0.60;;;;;;;-0.55;84.26;98180.78;29373;216;63005;-59
2022/01/15 01:03:58;;;;;;;0.60;0.60;;;;;;;-0.55;84.07;98185.28;29373;255;63009;-60
2022/01/15 01:04:30;;;;;;;0.60;0.60;;;;;;;-0.55;84.43;98179.94;29373;206;63004;-59
2022/01/15 01:05:01;;;;;;;0.60;0.60;;;;;;;-0.55;84.29;98179.94;29373;317;63009;-62
2022/01/15 01:05:34;;;;;;;0.60;0.60;;;;;;;-0.55;84.31;98179.94;29373;223;63004;-59
2022/01/15 01:06:05;;;;;;;0.60;0.60;;;;;;;-0.54;84.41;98184.28;29371;259;64008;-59
2022/01/15 01:06:39;;;;;;;0.60;0.60;;;;;;;-0.53;84.35;98183.25;29373;254;63004;-62
2022/01/15 01:07:10;;;;;;;0.60;0.60;;;;;;;-0.50;84.37;98180.22;29373;298;63009;-59
2022/01/15 01:07:42;;;;;;;0.60;0.60;;;;;;;-0.49;84.14;98179.19;29373;222;63005;-59
2022/01/15 01:08:13;;;;;;;0.60;0.60;;;;;;;-0.46;83.90;98176.16;29371;236;64009;-59
2022/01/15 01:08:44;;;;;;;0.65;0.65;;;;;;;-0.42;84.23;98180.91;29373;207;63005;-59
2022/01/15 01:09:16;;;;;;;0.68;0.68;;;;;;;-0.40;83.89;98180.72;29373;197;63009;-59
2022/01/15 01:10:23;;;;;;;0.60;0.60;;;;;;;-0.39;84.00;98179.72;29373;218;63005;-59
2022/01/15 01:11:00;;;;;;;0.60;0.60;;;;;;;-0.40;83.58;98172.72;29373;210;63023;-59
2022/01/15 01:11:44;;;;;;;0.60;0.60;;;;;;;-0.42;83.82;98174.75;29373;297;63004;-59
2022/01/15 01:12:34;;;;;;;0.60;0.60;;;;;;;-0.44;83.63;98176.78;29373;227;63009;-59
2022/01/15 01:13:26;;;;;;;0.60;0.60;;;;;;;-0.47;83.78;98174.50;29371;204;64004;-59
2022/01/15 01:20:17;;;;;;;0.70;0.70;;;;;;;-0.52;84.87;98164.41;29395;238;63004;-58
2022/01/15 01:22:33;;;;;;;0.60;0.60;;;;;;;-0.47;84.66;98167.31;29395;283;63004;-59
2022/01/15 01:23:35;;;;;;;0.60;0.60;;;;;;;-0.40;84.45;98170.88;29371;249;64005;-59
2022/01/15 01:24:06;;;;;;;0.70;0.70;;;;;;;-0.37;84.13;98170.50;29373;208;63009;-58
2022/01/15 01:24:37;;;;;;;0.60;0.60;;;;;;;-0.34;84.31;98170.09;29373;247;63005;-59
2022/01/15 01:25:09;;;;;;;0.60;0.60;;;;;;;-0.34;83.96;98169.25;29373;197;63009;-59
2022/01/15 01:25:44;;;;;;;0.60;0.60;;;;;;;-0.31;84.27;98166.22;29373;273;63004;-59
2022/01/15 01:26:41;;;;;;;0.70;0.70;;;;;;;-0.31;84.06;98166.22;29395;210;63009;-59
2022/01/15 01:27:23;;;;;;;0.60;0.60;;;;;;;-0.30;84.14;98180.37;29417;287;63004;-59
2022/01/15 01:28:03;;;;;;;0.60;0.60;;;;;;;-0.32;84.18;98169.91;29395;213;63008;-60
2022/01/15 01:28:40;;;;;;;0.60;0.60;;;;;;;-0.35;83.95;98167.62;29371;236;64004;-60
2022/01/15 01:29:29;;;;;;;0.60;0.60;;;;;;;-0.38;83.91;98165.34;29373;226;63009;-62
2022/01/15 01:30:15;;;;;;;0.65;0.65;;;;;;;-0.44;84.22;98166.13;29373;197;63005;-63
2022/01/15 01:31:55;;;;;;;0.68;0.68;;;;;;;-0.55;84.78;98155.97;29373;218;63009;-59
2022/01/15 01:33:36;;;;;;;0.70;0.70;;;;;;;-0.66;84.64;98159.94;29373;212;63008;-59
2022/01/15 01:34:12;;;;;;;0.60;0.60;;;;;;;-0.73;84.49;98167.91;29373;197;63009;-62
2022/01/15 01:34:44;;;;;;;0.60;0.60;;;;;;;-0.76;85.05;98167.47;29373;209;63004;-62
2022/01/15 01:35:33;;;;;;;0.60;0.60;;;;;;;-0.78;84.76;98169.50;29373;244;63009;-59
2022/01/15 01:36:38;;;;;;;2.75;2.47;;;;;;;-0.78;85.14;98164.97;29371;197;64004;-59
2022/01/15 01:37:25;;;;;;;0.70;0.70;;;;;;;-0.82;84.86;98162.88;29371;243;64009;-59
2022/01/15 01:37:54;;;;;;;3.75;3.53;;;;;;;-0.83;85.16;98162.06;29373;206;63005;-59
2022/01/15 01:38:31;;;;;;;0.60;0.60;;;;;;;-0.85;85.31;98169.41;29373;202;63018;-59
2022/01/15 01:39:08;;;;;;;0.60;0.60;;;;;;;-0.89;85.23;98168.12;29373;204;63005;-59
2022/01/15 01:39:46;;;;;;;0.70;0.70;;;;;;;-0.93;85.32;98164.19;29373;229;63009;-59
2022/01/15 01:40:36;;;;;;;0.60;0.60;;;;;;;-0.99;85.31;98170.28;29373;247;63005;-60
2022/01/15 01:41:14;;;;;;;4.25;3.95;;;;;;;-1.03;85.90;98169.00;29371;300;64009;-62
2022/01/15 01:42:54;;;;;;;0.70;0.70;;;;;;;-1.09;85.72;98167.13;29373;211;63009;-60
2022/01/15 01:44:26;;;;;;;0.70;0.70;;;;;;;-1.11;86.17;98174.47;29373;251;63009;-62
2022/01/15 01:45:06;;;;;;;0.60;0.60;;;;;;;-1.12;86.03;98176.31;29373;220;63005;-59
2022/01/15 01:45:40;;;;;;;0.70;0.70;;;;;;;-1.12;86.41;98172.81;29393;196;64009;-59
2022/01/15 01:46:20;;;;;;;0.70;0.70;;;;;;;-1.13;86.21;98172.00;29395;200;63005;-60
2022/01/15 01:47:02;;;;;;;1.15;1.15;;;;;;;-1.15;86.31;98165.19;29373;249;63005;-60
2022/01/15 01:47:40;;;;;;;0.70;0.70;;;;;;;-1.19;86.64;98169.25;29373;218;63005;-60
2022/01/15 01:48:11;;;;;;;0.70;0.70;;;;;;;-1.21;86.99;98174.75;29373;233;63014;-60
2022/01/15 01:48:43;;;;;;;0.60;0.60;;;;;;;-1.22;86.96;98167.78;29373;227;63004;-59
2022/01/15 01:49:15;;;;;;;0.70;0.70;;;;;;;-1.23;87.18;98175.94;29371;261;64009;-60
2022/01/15 01:49:47;;;;;;;0.62;0.62;;;;;;;-1.24;87.19;98179.63;29373;254;63012;-58
2022/01/15 01:50:22;;;;;;;0.70;0.70;;;;;;;-1.26;86.82;98173.66;29373;205;63009;-60
2022/01/15 01:50:53;;;;;;;0.70;0.70;;;;;;;-1.29;87.13;98174.84;29371;198;64004;-60
2022/01/15 01:51:31;;;;;;;1.27;1.27;;;;;;;-1.33;86.94;98176.22;29373;198;63009;-59
2022/01/15 01:52:03;;;;;;;2.65;2.55;;;;;;;-1.35;87.18;98179.06;29373;200;63008;-59
2022/01/15 01:52:35;;;;;;;0.60;0.60;;;;;;;-1.36;87.06;98177.44;29373;216;63009;-59
2022/01/15 01:53:07;;;;;;;1.17;1.17;;;;;;;-1.37;87.16;98175.78;29373;224;63005;-60
2022/01/15 01:53:38;;;;;;;19.40;18.35;;;;;;;-1.38;87.19;98176.78;29361;203;66009;-59
2022/01/15 01:54:13;;;;;;;0.60;0.60;;;;;;;-1.39;87.44;98177.78;29373;232;63005;-59
2022/01/15 01:54:44;;;;;;;0.68;0.68;;;;;;;-1.40;87.07;98176.19;29373;251;63009;-59
2022/01/15 01:55:17;;;;;;;0.70;0.70;;;;;;;-1.40;87.29;98178.00;29373;252;63005;-59
2022/01/15 01:55:48;;;;;;;0.70;0.70;;;;;;;-1.46;87.46;98176.91;29373;241;63009;-59
2022/01/15 01:56:20;;;;;;;1.35;1.35;;;;;;;-1.49;87.69;98171.97;29373;248;63004;-59
2022/01/15 01:56:51;;;;;;;0.75;0.75;;;;;;;-1.50;87.84;98174.81;29373;205;63009;-60
2022/01/15 01:57:23;;;;;;;0.60;0.60;;;;;;;-1.52;88.06;98171.50;29371;222;64004;-60
2022/01/15 01:57:57;;;;;;;0.70;0.70;;;;;;;-1.54;87.78;98174.34;29373;226;63019;-59
2022/01/15 01:58:28;;;;;;;1.80;1.80;;;;;;;-1.55;87.71;98178.00;29373;216;63004;-59
2022/01/15 01:59:00;;;;;;;1.50;1.50;;;;;;;-1.55;87.73;98178.00;29373;235;63009;-60
2022/01/15 01:59:36;;;;;;;1.95;1.80;;;;;;;-1.53;87.87;98181.31;29373;212;63005;-60
2022/01/15 02:00:11;;;;;;;1.05;1.05;;;;;;;-1.53;87.90;98176.00;29373;222;63009;-60
2022/01/15 02:00:42;;;;;;;0.70;0.70;;;;;;;-1.55;87.70;98185.16;29373;221;63005;-60
2022/01/15 02:01:13;;;;;;;0.70;0.70;;;;;;;-1.59;87.64;98171.41;29371;212;64009;-59
2022/01/15 02:01:45;;;;;;;0.73;0.73;;;;;;;-1.61;87.79;98173.41;29373;202;63005;-60
2022/01/15 02:02:17;;;;;;;0.70;0.70;;;;;;;-1.60;87.76;98174.25;29373;202;63009;-59
2022/01/15 02:02:50;;;;;;;3.90;3.70;;;;;;;-1.58;87.85;98173.06;29373;206;63005;-59
2022/01/15 02:03:21;;;;;;;0.70;0.70;;;;;;;-1.57;88.01;98176.53;29373;214;63009;-58
2022/01/15 02:03:54;;;;;;;0.70;0.70;;;;;;;-1.57;88.00;98173.88;29373;220;63004;-59
2022/01/15 02:04:25;;;;;;;0.60;0.60;;;;;;;-1.57;88.00;98180.03;29373;202;63023;-59
2022/01/15 02:05:01;;;;;;;0.70;0.70;;;;;;;-1.58;88.22;98173.06;29373;202;63004;-60
2022/01/15 02:05:32;;;;;;;1.12;1.12;;;;;;;-1.60;88.07;98172.41;29373;265;63009;-58
2022/01/15 02:06:04;;;;;;;1.12;1.12;;;;;;;-1.62;88.26;98171.78;29373;220;63004;-62
2022/01/15 02:06:37;;;;;;;0.70;0.70;;;;;;;-1.61;88.07;98180.59;29371;266;64023;-60
2022/01/15 02:07:08;;;;;;;0.70;0.70;;;;;;;-1.61;88.41;98175.25;29373;236;63005;-59
2022/01/15 02:07:41;;;;;;;0.75;0.75;;;;;;;-1.61;88.20;98178.75;29373;207;63009;-59
2022/01/15 02:08:15;;;;;;;0.70;0.70;;;;;;;-1.62;88.43;98177.09;29373;243;63005;-59
2022/01/15 02:08:48;;;;;;;0.70;0.70;;;;;;;-1.63;88.49;98170.13;29373;209;63026;-60
2022/01/15 02:09:21;;;;;;;0.60;0.60;;;;;;;-1.64;88.36;98173.78;29373;245;63005;-59
2022/01/15 02:09:53;;;;;;;0.80;0.80;;;;;;;-1.62;88.33;98173.59;29373;202;63009;-59
2022/01/15 02:10:25;;;;;;;0.70;0.70;;;;;;;-1.63;88.20;98170.13;29373;202;63005;-60
2022/01/15 02:10:57;;;;;;;0.70;0.70;;;;;;;-1.64;88.10;98171.13;29373;226;63014;-60
2022/01/15 02:11:29;;;;;;;7.47;7.05;;;;;;;-1.64;88.09;98167.62;29373;203;63004;-59
2022/01/15 02:12:00;;;;;;;0.70;0.70;;;;;;;-1.67;88.34;98173.31;29371;233;64009;-58
2022/01/15 02:12:32;;;;;;;1.95;1.85;;;;;;;-1.72;88.16;98165.88;29373;222;63004;-60
2022/01/15 02:13:08;;;;;;;0.62;0.62;;;;;;;-1.75;88.08;98167.13;29373;299;63009;-59
2022/01/15 02:13:42;;;;;;;0.65;0.65;;;;;;;-1.77;88.17;98173.63;29373;206;63004;-57
2022/01/15 02:14:31;;;;;;;0.60;0.60;;;;;;;-1.78;88.33;98166.66;29373;227;63009;-59
2022/01/15 02:15:17;;;;;;;2.55;2.45;;;;;;;-1.81;88.48;98164.34;29373;240;63005;-61
2022/01/15 02:15:49;;;;;;;0.70;0.70;;;;;;;-1.81;88.18;98167.00;29373;221;63009;-60
2022/01/15 02:16:21;;;;;;;0.70;0.70;;;;;;;-1.82;88.40;98176.00;29373;221;63005;-59
2022/01/15 02:16:52;;;;;;;0.70;0.70;;;;;;;-1.84;88.13;98167.38;29373;219;63009;-59
2022/01/15 02:17:26;;;;;;;0.60;0.60;;;;;;;-1.85;88.46;98165.72;29371;258;64004;-60
2022/01/15 02:17:57;;;;;;;0.70;0.70;;;;;;;-1.87;88.49;98162.44;29373;231;63004;-58
2022/01/15 02:18:29;;;;;;;0.70;0.70;;;;;;;-1.87;88.75;98167.75;29373;236;63004;-59
2022/01/15 02:19:01;;;;;;;0.70;0.70;;;;;;;-1.89;88.65;98164.44;29373;223;63009;-60
2022/01/15 02:19:45;;;;;;;0.70;0.70;;;;;;;-1.91;88.45;98175.25;29373;200;63004;-58
2022/01/15 02:23:59;;;;;;;0.75;0.75;;;;;;;-1.94;88.91;98156.19;29395;210;63009;-60
2022/01/15 02:24:30;;;;;;;0.70;0.70;;;;;;;-1.96;89.04;98163.50;29373;273;63005;-61
2022/01/15 02:25:01;;;;;;;1.05;1.05;;;;;;;-1.96;88.98;98158.19;29373;265;63009;-60
2022/01/15 02:26:01;;;;;;;0.62;0.62;;;;;;;-1.99;88.89;98161.22;29373;205;63004;-59
2022/01/15 02:26:37;;;;;;;0.70;0.70;;;;;;;-1.99;88.80;98159.38;29371;252;64009;-59
2022/01/15 02:27:08;;;;;;;0.80;0.80;;;;;;;-1.96;88.90;98152.88;29373;198;63004;-59
2022/01/15 02:27:39;;;;;;;0.70;0.70;;;;;;;-1.93;88.80;98152.50;29373;205;63018;-60
2022/01/15 02:28:11;;;;;;;0.62;0.62;;;;;;;-1.92;89.12;98148.84;29373;202;63004;-62
2022/01/15 02:28:51;;;;;;;0.70;0.70;;;;;;;-1.91;88.75;98146.00;29373;204;63009;-62
2022/01/15 02:29:22;;;;;;;0.70;0.70;;;;;;;-1.89;88.87;98149.31;29373;213;63005;-59
2022/01/15 02:29:53;;;;;;;0.70;0.70;;;;;;;-1.88;88.75;98140.31;29373;227;63009;-60
2022/01/15 02:30:26;;;;;;;1.25;1.25;;;;;;;-1.85;88.62;98144.44;29371;220;64005;-59
2022/01/15 02:31:15;;;;;;;0.70;0.70;;;;;;;-1.83;88.91;98139.75;29373;271;63009;-59
2022/01/15 02:31:46;;;;;;;0.70;0.70;;;;;;;-1.83;88.96;98142.44;29371;210;64005;-59
2022/01/15 02:32:18;;;;;;;0.88;0.88;;;;;;;-1.83;88.88;98145.91;29373;209;63009;-59
2022/01/15 02:32:49;;;;;;;0.70;0.70;;;;;;;-1.82;88.68;98144.09;29373;274;63004;-60
2022/01/15 02:33:22;;;;;;;0.70;0.70;;;;;;;-1.83;88.98;98142.44;29373;250;63009;-59
2022/01/15 02:33:56;;;;;;;3.10;2.95;;;;;;;-1.86;88.86;98137.47;29373;234;63004;-60
2022/01/15 02:34:30;;;;;;;3.85;3.72;;;;;;;-1.86;88.85;98148.13;29371;240;64009;-60
2022/01/15 02:35:05;;;;;;;0.70;0.70;;;;;;;-1.87;88.97;98152.59;29373;202;63004;-60
2022/01/15 02:35:36;;;;;;;0.70;0.70;;;;;;;-1.86;88.88;98148.13;29373;202;63008;-62
2022/01/15 02:36:11;;;;;;;0.70;0.70;;;;;;;-1.86;88.61;98143.63;29372;203;64005;-59
2022/01/15 02:36:42;;;;;;;0.70;0.70;;;;;;;-1.86;88.59;98145.44;29373;198;63009;-60
2022/01/15 02:37:13;;;;;;;0.70;0.70;;;;;;;-1.87;88.94;98149.94;29373;244;63005;-62
2022/01/15 02:37:44;;;;;;;0.60;0.60;;;;;;;-1.88;88.68;98150.13;29373;249;63009;-60
2022/01/15 02:38:16;;;;;;;0.68;0.68;;;;;;;-1.89;88.60;98148.47;29373;214;63005;-59
2022/01/15 02:38:47;;;;;;;0.70;0.70;;;;;;;-1.89;88.81;98137.84;29373;231;63009;-59
2022/01/15 02:39:18;;;;;;;1.02;1.02;;;;;;;-1.88;88.89;98145.62;29373;199;63005;-60
2022/01/15 02:39:49;;;;;;;1.85;1.85;;;;;;;-1.87;88.67;98143.81;29371;200;64009;-59
2022/01/15 02:40:20;;;;;;;0.70;0.70;;;;;;;-1.87;88.70;98144.62;29373;204;63004;-61
2022/01/15 02:40:53;;;;;;;0.70;0.70;;;;;;;-1.85;88.85;98133.81;29373;225;63009;-58
2022/01/15 02:41:35;;;;;;;0.60;0.60;;;;;;;-1.85;88.71;98139.94;29373;203;63009;-59
2022/01/15 02:42:07;;;;;;;1.05;1.05;;;;;;;-1.83;88.60;98147.75;29373;223;63009;-60
2022/01/15 02:42:39;;;;;;;0.60;0.60;;;;;;;-1.81;88.84;98145.72;29373;233;63004;-60
2022/01/15 02:43:14;;;;;;;0.60;0.60;;;;;;;-1.81;89.04;98129.78;29373;228;63008;-59
2022/01/15 02:43:45;;;;;;;0.93;0.93;;;;;;;-1.82;89.08;98144.09;29371;200;64005;-59
2022/01/15 02:44:19;;;;;;;0.70;0.70;;;;;;;-1.83;89.11;98143.25;29373;203;63009;-59
2022/01/15 02:44:58;;;;;;;0.60;0.60;;;;;;;-1.84;89.08;98140.78;29371;236;64005;-60
2022/01/15 02:45:32;;;;;;;0.70;0.70;;;;;;;-1.85;88.91;98139.13;29373;202;63009;-60
2022/01/15 02:46:20;;;;;;;0.60;0.60;;;;;;;-1.86;88.85;98134.81;29373;199;63005;-60
2022/01/15 02:48:31;;;;;;;11.75;11.20;;;;;;;-1.82;89.17;98128.13;29385;197;65009;-59
2022/01/15 02:49:06;;;;;;;0.68;0.68;;;;;;;-1.81;89.22;98127.09;29373;206;63004;-59
2022/01/15 02:49:37;;;;;;;0.70;0.70;;;;;;;-1.79;89.16;98133.06;29373;206;63020;-60
2022/01/15 02:50:10;;;;;;;0.60;0.60;;;;;;;-1.77;89.28;98123.91;29371;247;64004;-59
2022/01/15 02:50:43;;;;;;;0.70;0.70;;;;;;;-1.74;89.31;98130.69;29373;200;63008;-59
2022/01/15 02:51:17;;;;;;;0.70;0.70;;;;;;;-1.71;89.08;98132.94;29373;207;63005;-59
2022/01/15 02:51:49;;;;;;;0.70;0.70;;;;;;;-1.68;89.30;98129.94;29373;242;63016;-58
2022/01/15 02:52:20;;;;;;;0.70;0.70;;;;;;;-1.66;89.21;98133.22;29373;198;63005;-59
2022/01/15 02:52:51;;;;;;;1.50;1.50;;;;;;;-1.64;88.83;98139.19;29373;233;63009;-59
2022/01/15 02:53:23;;;;;;;1.05;1.05;;;;;;;-1.63;88.95;98132.84;29371;234;64005;-60
2022/01/15 02:53:56;;;;;;;0.70;0.70;;;;;;;-1.60;89.02;98127.16;29373;197;63009;-63
2022/01/15 02:54:27;;;;;;;0.70;0.70;;;;;;;-1.57;88.79;98126.81;29373;228;63005;-59
2022/01/15 02:54:58;;;;;;;0.70;0.70;;;;;;;-1.55;88.84;98124.78;29373;225;63009;-58
2022/01/15 02:55:30;;;;;;;0.70;0.70;;;;;;;-1.53;88.53;98119.28;29373;202;63004;-59
2022/01/15 02:56:01;;;;;;;0.85;0.85;;;;;;;-1.54;88.83;98109.63;29373;210;63009;-59
2022/01/15 02:56:41;;;;;;;0.70;0.70;;;;;;;-1.53;88.44;98122.75;29373;216;63004;-60
2022/01/15 02:57:12;;;;;;;0.60;0.60;;;;;;;-1.54;88.68;98115.78;29373;227;63009;-60
2022/01/15 02:57:43;;;;;;;0.60;0.60;;;;;;;-1.54;88.69;98121.09;29373;214;63004;-64
2022/01/15 02:58:16;;;;;;;2.00;1.95;;;;;;;-1.56;88.77;98112.47;29373;220;63008;-59
2022/01/15 02:58:48;;;;;;;0.60;0.60;;;;;;;-1.57;88.69;98120.66;29371;221;64005;-59
2022/01/15 02:59:22;;;;;;;0.70;0.70;;;;;;;-1.56;88.28;98125.78;29373;209;63009;-64
2022/01/15 02:59:54;;;;;;;0.60;0.60;;;;;;;-1.53;88.31;98121.94;29373;203;63005;-60
2022/01/15 03:00:26;;;;;;;0.80;0.80;;;;;;;-1.51;88.20;98130.56;29373;262;63009;-58
2022/01/15 03:00:57;;;;;;;0.60;0.60;;;;;;;-1.50;88.33;98125.06;29373;215;63005;-60
2022/01/15 03:01:29;;;;;;;0.60;0.60;;;;;;;-1.49;88.23;98128.53;29373;197;63009;-63
2022/01/15 03:02:02;;;;;;;0.60;0.60;;;;;;;-1.47;88.30;98122.03;29373;240;63005;-59
2022/01/15 03:02:33;;;;;;;0.60;0.60;;;;;;;-1.48;88.03;98115.03;29373;226;63017;-59